Time;durP1;ratioP1;P1;durP2;ratioP2;P2;SDS_P1;SDS_P2;PMS_P1;PMS_P2;Temp;Humidity;BMP_temperature;BMP_pressure;BME280_temperature;BME280_humidity;BME280_pressure;Samples;Min_cycle;Max_cycle;Signal;HPM_P1;HPM_P2
2021/04/10 00:01:01;;;;;;;8.60;4.38;;;;;;;11.79;56.03;99912.38;5087615;28;20138;-83
2021/04/10 00:03:27;;;;;;;7.35;4.15;;;;;;;11.83;55.98;99908.56;5094085;28;20059;-84
2021/04/10 00:05:53;;;;;;;10.70;4.28;;;;;;;11.86;55.84;99899.59;5092504;28;20056;-84
2021/04/10 00:08:19;;;;;;;7.05;4.80;;;;;;;11.85;57.26;99888.13;5095562;28;20071;-83
2021/04/10 00:10:46;;;;;;;9.25;4.40;;;;;;;11.83;57.76;99890.00;5093141;28;20082;-84
2021/04/10 00:13:12;;;;;;;8.35;4.28;;;;;;;11.82;57.59;99888.31;5094708;28;20063;-82
2021/04/10 00:15:39;;;;;;;9.95;4.50;;;;;;;11.81;58.65;99891.91;5076846;28;20049;-84
2021/04/10 00:18:05;;;;;;;7.60;4.90;;;;;;;11.75;59.50;99892.25;5076488;28;20041;-83
2021/04/10 00:20:31;;;;;;;6.90;4.22;;;;;;;11.67;59.45;99883.03;5078466;28;20053;-83
2021/04/10 00:22:58;;;;;;;7.38;4.50;;;;;;;11.65;59.23;99882.28;5083222;28;20056;-84
2021/04/10 00:25:27;;;;;;;8.10;4.47;;;;;;;11.65;59.46;99885.75;5093950;28;20095;-83
2021/04/10 00:27:54;;;;;;;8.38;4.55;;;;;;;11.65;60.73;99885.75;5083710;28;20048;-84
2021/04/10 00:30:21;;;;;;;8.35;4.78;;;;;;;11.62;61.63;99898.38;5082136;28;20071;-83
2021/04/10 00:32:49;;;;;;;12.18;5.88;;;;;;;11.56;63.31;99886.31;5090152;28;20045;-84
2021/04/10 00:35:15;;;;;;;8.57;5.07;;;;;;;11.59;63.86;99891.44;5078708;28;20055;-84
2021/04/10 00:37:42;;;;;;;12.88;5.85;;;;;;;11.53;65.88;99876.75;5085023;28;20071;-85
2021/04/10 00:40:09;;;;;;;11.52;5.53;;;;;;;11.34;66.92;99870.81;5088839;28;20056;-83
2021/04/10 00:42:37;;;;;;;12.43;5.50;;;;;;;11.35;67.82;99890.22;5078529;28;20060;-84
2021/04/10 00:45:06;;;;;;;12.80;6.40;;;;;;;11.25;68.49;99892.56;5089849;28;20052;-84
2021/04/10 00:47:33;;;;;;;9.95;6.80;;;;;;;11.16;68.76;99893.97;5084948;28;20104;-84
2021/04/10 00:49:59;;;;;;;11.98;6.80;;;;;;;11.13;69.60;99894.13;5085891;28;20073;-84
2021/04/10 00:52:26;;;;;;;10.50;7.40;;;;;;;11.03;71.01;99890.28;5085033;28;20056;-83
2021/04/10 00:54:52;;;;;;;11.00;7.32;;;;;;;10.94;71.99;99888.16;5082528;28;20068;-85
2021/04/10 00:57:19;;;;;;;11.40;7.63;;;;;;;10.87;72.16;99900.88;5092526;28;20045;-84
2021/04/10 00:59:46;;;;;;;9.45;7.22;;;;;;;10.80;70.80;99902.19;5078622;28;20067;-84
2021/04/10 01:02:13;;;;;;;11.07;7.10;;;;;;;10.77;70.02;99905.00;5082685;28;20036;-84
2021/04/10 01:04:40;;;;;;;10.73;7.22;;;;;;;10.75;70.06;99909.50;5085097;28;20729;-84
2021/04/10 01:07:07;;;;;;;11.82;6.88;;;;;;;10.71;70.07;99905.31;5089381;28;20025;-85
2021/04/10 01:09:35;;;;;;;13.25;7.10;;;;;;;10.61;70.34;99911.22;5073251;28;20108;-83
2021/04/10 01:12:24;;;;;;;11.30;7.13;;;;;;;10.57;70.54;99915.81;5071704;28;20079;-84
2021/04/10 01:15:09;;;;;;;11.15;7.25;;;;;;;10.58;71.44;99938.72;5030452;28;20082;-84
2021/04/10 01:17:44;;;;;;;12.05;6.95;;;;;;;10.53;71.44;99936.34;5067998;28;20072;-84
2021/04/10 01:20:56;;;;;;;12.50;7.20;;;;;;;10.38;72.01;99918.63;5063148;28;20045;-84
2021/04/10 01:24:06;;;;;;;9.48;6.15;;;;;;;10.31;72.91;99921.66;5062031;28;20045;-83
2021/04/10 01:26:50;;;;;;;12.60;6.40;;;;;;;10.27;74.14;99923.63;5076166;28;20135;-84
2021/04/10 01:29:18;;;;;;;9.85;6.22;;;;;;;10.19;74.75;99917.91;5071160;28;20041;-84
2021/04/10 01:31:48;;;;;;;14.63;7.40;;;;;;;10.11;76.15;99918.25;5067104;28;20053;-85
2021/04/10 01:34:21;;;;;;;10.82;6.50;;;;;;;10.03;76.67;99909.03;5063315;28;20070;-83
2021/04/10 01:36:48;;;;;;;12.25;6.68;;;;;;;9.91;77.13;99899.94;5075248;28;20741;-82
2021/04/10 01:39:16;;;;;;;9.32;7.13;;;;;;;10.02;77.94;99918.75;5072924;28;20048;-85
2021/04/10 01:41:46;;;;;;;13.32;7.05;;;;;;;9.95;77.55;99912.06;5068470;28;20108;-84
2021/04/10 01:44:14;;;;;;;9.82;6.43;;;;;;;9.89;78.29;99916.81;5069220;28;20236;-84
2021/04/10 01:46:41;;;;;;;12.48;6.72;;;;;;;9.83;78.38;99920.63;5091753;28;20051;-84
2021/04/10 01:49:08;;;;;;;10.68;6.93;;;;;;;9.80;79.66;99916.34;5086547;28;20136;-83
2021/04/10 01:51:35;;;;;;;12.27;7.10;;;;;;;9.79;80.08;99921.72;5076285;28;20068;-83
2021/04/10 01:54:03;;;;;;;11.68;7.15;;;;;;;9.64;80.58;99918.06;5076101;28;20075;-83
2021/04/10 01:56:32;;;;;;;9.23;6.88;;;;;;;9.56;81.32;99922.88;5077117;28;20116;-82
2021/04/10 01:59:01;;;;;;;12.95;7.53;;;;;;;9.52;81.97;99928.41;5075277;28;20057;-83
2021/04/10 02:01:29;;;;;;;9.40;7.20;;;;;;;9.48;82.99;99923.25;5071552;28;20052;-82
2021/04/10 02:03:57;;;;;;;10.30;6.97;;;;;;;9.47;83.46;99924.19;5083663;28;20055;-83
2021/04/10 02:06:24;;;;;;;11.73;7.40;;;;;;;9.53;84.17;99925.69;5084765;28;20036;-83
2021/04/10 02:08:54;;;;;;;11.70;7.32;;;;;;;9.57;84.44;99929.03;5079080;28;20063;-83
2021/04/10 02:11:21;;;;;;;11.45;7.65;;;;;;;9.60;84.90;99923.59;5062337;28;20154;-83
2021/04/10 02:13:48;;;;;;;15.40;8.77;;;;;;;9.55;84.59;99918.53;5079862;28;20045;-84
2021/04/10 02:16:15;;;;;;;11.40;7.85;;;;;;;9.52;84.23;99913.41;5088495;28;20059;-84
2021/04/10 02:18:42;;;;;;;12.18;7.75;;;;;;;9.44;84.82;99913.75;5090594;28;20100;-84
2021/04/10 02:21:10;;;;;;;14.02;8.10;;;;;;;9.40;85.38;99921.94;5088742;28;20140;-84
2021/04/10 02:23:41;;;;;;;13.70;8.73;;;;;;;9.33;85.84;99924.03;5092393;28;20104;-85
2021/04/10 02:26:08;;;;;;;12.52;8.00;;;;;;;9.32;86.06;99924.94;5093041;28;20071;-84
2021/04/10 02:28:35;;;;;;;13.02;7.90;;;;;;;9.28;85.79;99923.41;5087321;28;20060;-82
2021/04/10 02:31:05;;;;;;;11.93;8.48;;;;;;;9.24;85.90;99918.34;5093892;28;20048;-83
2021/04/10 02:33:39;;;;;;;12.73;8.50;;;;;;;9.19;86.07;99915.91;5086627;28;20108;-84
2021/04/10 02:36:09;;;;;;;13.65;9.38;;;;;;;9.17;86.35;99923.06;5089689;28;20738;-84
2021/04/10 02:38:36;;;;;;;19.13;10.77;;;;;;;9.11;86.42;99920.72;5085369;28;20057;-83
2021/04/10 02:41:24;;;;;;;17.70;10.57;;;;;;;9.04;86.26;99924.59;5074567;28;20049;-84
2021/04/10 02:44:02;;;;;;;15.10;10.38;;;;;;;9.01;86.47;99922.94;5071822;28;20043;-84
2021/04/10 02:46:34;;;;;;;16.95;10.13;;;;;;;9.04;87.13;99932.50;5066157;28;20070;-84
2021/04/10 02:49:03;;;;;;;16.30;11.13;;;;;;;9.00;86.94;99937.06;5070738;28;20045;-85
2021/04/10 02:51:37;;;;;;;17.77;11.27;;;;;;;8.99;87.08;99934.50;5067208;28;20109;-84
2021/04/10 02:54:06;;;;;;;15.30;11.60;;;;;;;9.00;88.02;99928.28;5067243;28;20481;-84
2021/04/10 02:56:38;;;;;;;17.38;12.15;;;;;;;9.02;88.30;99926.44;5072633;28;20082;-84
2021/04/10 02:59:07;;;;;;;18.05;11.75;;;;;;;8.99;88.39;99926.59;5070172;28;20048;-84
2021/04/10 03:01:34;;;;;;;20.05;12.18;;;;;;;8.97;88.01;99931.13;5068418;28;20122;-83
2021/04/10 03:04:02;;;;;;;18.90;13.02;;;;;;;8.90;88.27;99941.09;5067187;28;20048;-82
2021/04/10 03:06:29;;;;;;;18.23;12.93;;;;;;;8.87;88.65;99940.38;5064221;28;20479;-84
2021/04/10 03:08:57;;;;;;;19.27;13.25;;;;;;;8.72;88.48;99929.59;5067590;28;20517;-83
2021/04/10 03:11:24;;;;;;;18.00;13.68;;;;;;;8.69;88.90;99937.66;5064843;28;20082;-84
2021/04/10 03:13:52;;;;;;;19.83;13.80;;;;;;;8.64;88.82;99941.47;5057968;28;20040;-83
2021/04/10 03:16:21;;;;;;;21.45;14.02;;;;;;;8.55;89.10;99944.50;5064774;28;20056;-83
2021/04/10 03:18:50;;;;;;;21.15;14.18;;;;;;;8.39;89.13;99924.09;5067001;28;20052;-84
2021/04/10 03:21:17;;;;;;;19.02;14.65;;;;;;;8.43;90.08;99935.38;5062275;28;20137;-84
2021/04/10 03:23:44;;;;;;;23.60;14.52;;;;;;;8.39;90.35;99931.16;5070701;28;20090;-84
2021/04/10 03:26:12;;;;;;;21.85;14.93;;;;;;;8.37;90.29;99938.28;5074308;28;20050;-84
2021/04/10 03:28:39;;;;;;;23.15;16.13;;;;;;;8.35;90.44;99942.75;5074573;28;20091;-83
2021/04/10 03:31:06;;;;;;;23.10;15.18;;;;;;;8.31;90.89;99941.19;5082860;28;20040;-82
2021/04/10 03:33:33;;;;;;;23.10;15.95;;;;;;;8.26;91.24;99946.66;5084017;28;20106;-84
2021/04/10 03:36:01;;;;;;;24.25;17.42;;;;;;;8.25;91.44;99937.03;5063546;28;20044;-83
2021/04/10 03:38:28;;;;;;;23.55;17.23;;;;;;;8.30;91.90;99936.81;5069271;28;20462;-83
2021/04/10 03:40:55;;;;;;;26.10;17.63;;;;;;;8.25;91.83;99934.38;5071001;28;20238;-83
2021/04/10 03:43:21;;;;;;;23.40;17.02;;;;;;;8.22;91.65;99936.31;5079449;28;20599;-83
2021/04/10 03:45:47;;;;;;;25.60;18.05;;;;;;;8.18;91.25;99929.47;5083840;28;20049;-82
2021/04/10 03:48:13;;;;;;;24.30;16.85;;;;;;;8.15;91.76;99935.72;5084303;28;20071;-82
2021/04/10 03:50:40;;;;;;;23.00;17.20;;;;;;;8.13;91.92;99931.44;5083140;28;20051;-81
2021/04/10 03:53:06;;;;;;;23.73;17.50;;;;;;;8.10;91.98;99925.38;5074142;28;20139;-82
2021/04/10 03:55:36;;;;;;;24.05;17.52;;;;;;;8.22;92.20;99937.16;5084143;28;20095;-82
2021/04/10 03:58:02;;;;;;;23.67;16.75;;;;;;;8.31;92.40;99934.13;5081910;28;20045;-80
2021/04/10 04:00:30;;;;;;;23.25;17.60;;;;;;;8.33;91.54;99936.72;5081102;28;20052;-82
2021/04/10 04:02:57;;;;;;;23.27;16.40;;;;;;;8.31;91.11;99931.50;5082784;28;20056;-80
2021/04/10 04:05:23;;;;;;;24.38;17.00;;;;;;;8.35;91.75;99942.75;5089004;28;20064;-80
2021/04/10 04:07:50;;;;;;;24.27;17.35;;;;;;;8.36;91.89;99940.06;5083867;28;20044;-82
2021/04/10 04:10:16;;;;;;;22.63;16.25;;;;;;;8.31;90.55;99941.19;5080146;28;20072;-82
2021/04/10 04:12:43;;;;;;;25.92;17.02;;;;;;;8.29;90.73;99935.13;5085470;28;20049;-84
2021/04/10 04:15:09;;;;;;;22.42;17.17;;;;;;;8.28;91.22;99939.53;5080272;28;20040;-84
2021/04/10 04:17:37;;;;;;;24.90;17.38;;;;;;;8.39;91.53;99957.53;5087224;28;20096;-83
2021/04/10 04:20:06;;;;;;;24.60;17.52;;;;;;;8.39;91.42;99947.84;5088330;28;20079;-83
2021/04/10 04:22:32;;;;;;;24.27;18.10;;;;;;;8.40;91.51;99949.56;5087811;28;20104;-83
2021/04/10 04:24:58;;;;;;;28.15;17.77;;;;;;;8.44;91.74;99955.56;5076697;28;20101;-83
2021/04/10 04:27:24;;;;;;;25.02;17.85;;;;;;;8.48;91.75;99959.78;5075174;28;20082;-83
2021/04/10 04:29:52;;;;;;;26.90;17.23;;;;;;;8.50;91.43;99967.63;5070748;28;21009;-83
2021/04/10 04:32:20;;;;;;;27.08;17.33;;;;;;;8.48;90.60;99974.75;5067272;28;20053;-83
2021/04/10 04:34:47;;;;;;;25.08;18.30;;;;;;;8.53;91.06;99970.09;5062421;28;20070;-81
2021/04/10 04:37:14;;;;;;;25.48;17.55;;;;;;;8.57;90.55;99976.97;5065256;28;20658;-81
2021/04/10 04:39:40;;;;;;;26.35;18.10;;;;;;;8.59;90.60;99983.91;5065503;28;20446;-83
2021/04/10 04:42:07;;;;;;;23.88;17.65;;;;;;;8.56;89.80;99984.03;5067937;28;20049;-82
2021/04/10 04:44:34;;;;;;;27.45;18.00;;;;;;;8.50;89.80;99992.22;5065447;28;20116;-82
2021/04/10 04:47:01;;;;;;;28.15;18.15;;;;;;;8.49;89.59;100003.72;5062494;28;20462;-83
2021/04/10 04:49:28;;;;;;;23.98;18.15;;;;;;;8.47;89.75;100005.56;5069234;28;20474;-83
2021/04/10 04:51:55;;;;;;;26.63;18.00;;;;;;;8.51;90.27;100004.47;5072817;28;20052;-83
2021/04/10 04:54:21;;;;;;;29.48;20.25;;;;;;;8.56;90.69;100007.78;5071018;28;20058;-83
2021/04/10 04:56:48;;;;;;;27.38;19.10;;;;;;;8.61;90.45;100020.78;5062250;28;20280;-83
2021/04/10 04:59:15;;;;;;;26.58;19.02;;;;;;;8.60;90.61;100022.56;5071911;28;20071;-82
2021/04/10 05:01:41;;;;;;;25.30;19.08;;;;;;;8.63;90.54;100030.34;5068981;28;20083;-83
2021/04/10 05:04:08;;;;;;;26.30;20.10;;;;;;;8.61;90.34;100031.34;5069790;28;20045;-83
2021/04/10 05:06:34;;;;;;;27.83;18.75;;;;;;;8.51;89.54;100038.78;5065127;28;20108;-83
2021/04/10 05:09:04;;;;;;;24.80;18.73;;;;;;;8.46;90.61;100035.50;5073175;28;20052;-82
2021/04/10 05:11:31;;;;;;;26.50;19.63;;;;;;;8.54;90.74;100043.94;5069821;28;20076;-83
2021/04/10 05:13:57;;;;;;;27.80;18.33;;;;;;;8.56;90.56;100046.50;5075912;28;20113;-81
2021/04/10 05:16:23;;;;;;;26.48;19.67;;;;;;;8.56;90.65;100050.00;5055960;28;20063;-82
2021/04/10 05:18:49;;;;;;;27.35;18.85;;;;;;;8.46;90.02;100040.78;5067151;28;20108;-82
2021/04/10 05:21:15;;;;;;;26.63;18.73;;;;;;;8.49;90.13;100059.13;5063833;28;20132;-82
2021/04/10 05:23:41;;;;;;;26.50;19.38;;;;;;;8.49;90.82;100051.22;5063179;28;20049;-83
2021/04/10 05:26:07;;;;;;;29.05;19.88;;;;;;;8.46;90.37;100064.53;5072083;28;20120;-83
2021/04/10 05:28:39;;;;;;;26.98;18.52;;;;;;;8.43;89.67;100067.31;5081741;28;20048;-84
2021/04/10 05:31:06;;;;;;;24.90;19.02;;;;;;;8.37;89.92;100073.69;5079938;28;20036;-83
2021/04/10 05:33:32;;;;;;;26.20;18.77;;;;;;;8.32;90.08;100072.19;5090436;28;20087;-84
2021/04/10 05:35:59;;;;;;;26.08;19.70;;;;;;;8.37;90.51;100080.75;5086470;28;20055;-83
2021/04/10 05:38:25;;;;;;;29.48;19.67;;;;;;;8.41;90.46;100084.97;5082681;28;20159;-83
2021/04/10 05:40:52;;;;;;;28.33;19.60;;;;;;;8.43;90.30;100091.91;5073175;28;20132;-83
2021/04/10 05:43:20;;;;;;;29.05;19.25;;;;;;;8.41;89.85;100088.47;5067967;28;20049;-82
2021/04/10 05:45:46;;;;;;;28.42;19.05;;;;;;;8.41;90.11;100096.41;5074115;28;20055;-83
2021/04/10 05:48:13;;;;;;;27.10;19.35;;;;;;;8.44;90.17;100093.63;5073568;28;20049;-82
2021/04/10 05:50:39;;;;;;;27.15;19.25;;;;;;;8.44;89.61;100091.00;5071513;28;20071;-82
2021/04/10 05:53:05;;;;;;;26.55;19.08;;;;;;;8.47;89.86;100095.28;5066029;28;20065;-82
2021/04/10 05:55:32;;;;;;;26.85;18.63;;;;;;;8.44;89.16;100091.00;5064350;28;20074;-84
2021/04/10 05:57:59;;;;;;;26.27;18.63;;;;;;;8.47;89.45;100097.91;5069004;28;20127;-84
2021/04/10 06:00:25;;;;;;;26.77;18.90;;;;;;;8.47;88.88;100100.56;5073239;28;20054;-84
2021/04/10 06:02:53;;;;;;;26.00;18.98;;;;;;;8.55;89.37;100106.34;5078401;28;20048;-83
2021/04/10 06:05:21;;;;;;;23.13;16.50;;;;;;;8.57;88.66;100106.28;5082460;28;20041;-83
2021/04/10 06:07:48;;;;;;;24.92;17.60;;;;;;;8.58;88.70;100111.50;5091938;28;20056;-82
2021/04/10 06:10:18;;;;;;;24.02;16.92;;;;;;;8.64;88.64;100119.16;5088846;28;20033;-83
2021/04/10 06:12:45;;;;;;;23.30;15.98;;;;;;;8.66;88.86;100125.22;5089732;28;20075;-82
2021/04/10 06:15:15;;;;;;;22.95;16.80;;;;;;;8.66;88.23;100122.56;5072067;28;20049;-84
2021/04/10 06:17:41;;;;;;;23.70;16.20;;;;;;;8.61;87.45;100111.38;5072984;28;20139;-82
2021/04/10 06:20:09;;;;;;;21.70;16.42;;;;;;;8.59;87.35;100121.13;5078184;28;20052;-83
2021/04/10 06:22:37;;;;;;;24.73;17.35;;;;;;;8.59;87.49;100118.50;5088818;28;20041;-84
2021/04/10 06:25:05;;;;;;;25.63;17.70;;;;;;;8.63;88.47;100120.09;5081671;28;20459;-83
2021/04/10 06:27:33;;;;;;;26.20;16.45;;;;;;;8.69;88.16;100126.88;5064604;28;20060;-82
2021/04/10 06:29:59;;;;;;;23.85;16.98;;;;;;;8.73;87.63;100128.47;5066724;28;21744;-82
2021/04/10 06:32:26;;;;;;;23.33;16.83;;;;;;;8.74;87.83;100125.75;5075546;28;20080;-82
2021/04/10 06:34:52;;;;;;;22.63;16.90;;;;;;;8.72;87.70;100117.03;5067910;28;20056;-81
2021/04/10 06:37:19;;;;;;;21.55;16.60;;;;;;;8.77;87.90;100122.13;5062291;28;20054;-85
2021/04/10 06:39:45;;;;;;;22.92;17.23;;;;;;;8.80;88.52;100124.63;5069741;28;20072;-84
2021/04/10 06:42:12;;;;;;;24.67;17.42;;;;;;;8.92;88.40;100137.28;5075182;28;20099;-85
2021/04/10 06:44:38;;;;;;;24.50;17.45;;;;;;;9.03;87.79;100135.03;5086428;28;20693;-84
2021/04/10 06:47:05;;;;;;;21.15;16.60;;;;;;;9.09;87.41;100132.13;5089380;28;20045;-83
2021/04/10 06:49:32;;;;;;;23.80;17.00;;;;;;;9.20;87.84;100138.69;5082239;28;20040;-85
2021/04/10 06:51:59;;;;;;;23.17;16.45;;;;;;;9.17;86.63;100128.25;5084757;28;20631;-84
2021/04/10 06:54:34;;;;;;;23.40;16.38;;;;;;;9.16;86.63;100140.59;5075852;28;20080;-84
2021/04/10 06:57:10;;;;;;;22.85;16.05;;;;;;;9.16;86.60;100143.25;5073640;28;20053;-84
2021/04/10 06:59:49;;;;;;;23.10;17.00;;;;;;;9.29;87.63;100144.41;5075966;28;20144;-83
2021/04/10 07:02:16;;;;;;;21.45;15.75;;;;;;;9.33;86.41;100150.41;5073538;28;20041;-84
2021/04/10 07:04:43;;;;;;;22.23;16.42;;;;;;;9.37;86.45;100152.00;5065845;28;20048;-84
2021/04/10 07:07:11;;;;;;;21.92;16.90;;;;;;;9.46;86.72;100140.97;5079433;28;20071;-85
2021/04/10 07:09:37;;;;;;;21.60;15.98;;;;;;;9.54;86.20;100148.56;5071549;28;20041;-81
2021/04/10 07:12:07;;;;;;;21.20;15.85;;;;;;;9.45;84.71;100144.56;5067868;28;20132;-84
2021/04/10 07:14:33;;;;;;;23.88;16.00;;;;;;;9.37;85.45;100134.34;5094109;28;20053;-84
2021/04/10 07:17:00;;;;;;;24.85;15.80;;;;;;;9.47;85.66;100154.13;5083867;28;20045;-84
2021/04/10 07:19:28;;;;;;;24.77;16.67;;;;;;;9.54;86.29;100151.22;5076346;28;20048;-85
2021/04/10 07:22:09;;;;;;;24.17;16.38;;;;;;;9.60;85.79;100145.66;5070535;28;20051;-84
2021/04/10 07:24:50;;;;;;;24.48;16.45;;;;;;;9.67;85.99;100158.50;5078607;28;20044;-85
2021/04/10 07:27:19;;;;;;;24.65;16.50;;;;;;;9.72;85.83;100159.16;5089670;28;20024;-84
2021/04/10 07:29:50;;;;;;;27.88;19.05;;;;;;;9.74;86.25;100164.38;5084348;28;21016;-84
2021/04/10 07:32:28;;;;;;;23.70;17.08;;;;;;;9.70;86.17;100165.44;5076453;28;20136;-84
2021/04/10 07:34:56;;;;;;;25.92;17.70;;;;;;;9.67;86.46;100166.44;5069817;28;20076;-84
2021/04/10 07:37:33;;;;;;;23.42;17.20;;;;;;;9.65;86.36;100159.50;5072352;28;20099;-84
2021/04/10 07:40:04;;;;;;;24.60;17.35;;;;;;;9.64;86.42;100173.63;5076637;28;20082;-83
2021/04/10 07:42:31;;;;;;;25.63;17.10;;;;;;;9.69;88.66;100174.28;5082396;28;20049;-84
2021/04/10 07:44:57;;;;;;;23.20;17.20;;;;;;;9.76;88.15;100173.06;5084395;28;20048;-82
2021/04/10 07:47:34;;;;;;;26.67;17.17;;;;;;;9.66;86.97;100177.94;5073993;28;20090;-83
2021/04/10 07:50:23;;;;;;;28.77;18.63;;;;;;;9.64;86.80;100174.50;5073798;28;21667;-83
2021/04/10 07:52:50;;;;;;;25.20;17.25;;;;;;;9.67;86.87;100170.84;5071306;28;20040;-83
2021/04/10 07:55:36;;;;;;;23.02;16.60;;;;;;;9.75;87.02;100174.00;5073834;28;20071;-81
2021/04/10 07:58:30;;;;;;;21.83;17.17;;;;;;;9.73;86.31;100167.94;5085572;28;20064;-82
2021/04/10 08:01:02;;;;;;;26.35;18.23;;;;;;;9.75;86.99;100180.16;5086122;28;20052;-82
2021/04/10 08:03:32;;;;;;;23.10;17.23;;;;;;;9.74;87.23;100189.03;5084419;28;20048;-83
2021/04/10 08:06:07;;;;;;;24.00;17.50;;;;;;;9.73;87.44;100187.31;5079139;28;20084;-84
2021/04/10 08:08:43;;;;;;;24.80;16.92;;;;;;;9.73;87.29;100195.25;5076591;28;20070;-85
2021/04/10 08:11:10;;;;;;;22.83;16.73;;;;;;;9.63;86.94;100187.78;5083830;28;20512;-83
2021/04/10 08:13:38;;;;;;;22.08;17.08;;;;;;;9.53;87.41;100191.78;5084613;28;20055;-83
2021/04/10 08:16:17;;;;;;;24.70;17.80;;;;;;;9.48;87.34;100197.28;5091236;28;20075;-82
2021/04/10 08:18:47;;;;;;;25.17;16.83;;;;;;;9.53;88.26;100207.66;5075047;28;20136;-82
2021/04/10 08:21:19;;;;;;;24.23;18.15;;;;;;;9.56;88.71;100205.72;5074507;28;20057;-85
2021/04/10 08:23:48;;;;;;;25.40;17.98;;;;;;;9.60;88.67;100203.81;5085174;28;20041;-83
2021/04/10 08:26:16;;;;;;;31.30;19.63;;;;;;;9.69;88.93;100200.72;5088286;28;20059;-84
2021/04/10 08:28:47;;;;;;;24.42;18.48;;;;;;;9.74;88.25;100204.88;5089636;28;20078;-83
2021/04/10 08:31:19;;;;;;;24.70;17.98;;;;;;;9.77;88.33;100209.16;5082359;28;20119;-83
2021/04/10 08:33:48;;;;;;;26.52;18.40;;;;;;;9.77;88.65;100214.44;5082138;28;20057;-83
2021/04/10 08:36:22;;;;;;;25.23;18.80;;;;;;;9.73;88.60;100213.75;5085533;28;20060;-83
2021/04/10 08:38:52;;;;;;;29.10;20.45;;;;;;;9.75;88.97;100217.19;5067340;28;20045;-82
2021/04/10 08:41:18;;;;;;;26.67;20.00;;;;;;;9.78;89.30;100222.31;5075919;28;20079;-81
2021/04/10 08:43:51;;;;;;;31.50;20.10;;;;;;;9.79;89.72;100215.22;5073938;28;20049;-81
2021/04/10 08:46:19;;;;;;;34.63;22.42;;;;;;;9.83;89.75;100222.09;5080688;28;20211;-83
2021/04/10 08:48:51;;;;;;;29.25;20.90;;;;;;;9.83;89.72;100224.75;5076838;28;20452;-82
2021/04/10 08:51:20;;;;;;;32.20;21.75;;;;;;;9.80;89.45;100219.59;5083578;28;20043;-83
2021/04/10 08:53:50;;;;;;;33.97;22.08;;;;;;;9.76;89.53;100205.66;5086832;28;20033;-84
2021/04/10 08:56:22;;;;;;;33.42;22.08;;;;;;;9.76;89.41;100210.94;5085615;28;20047;-83
2021/04/10 08:58:49;;;;;;;30.67;22.15;;;;;;;9.72;89.67;100197.94;5084798;28;20053;-82
2021/04/10 09:05:02;;;;;;;33.10;22.35;;;;;;;9.83;89.90;100232.69;5060769;28;20185;-85
2021/04/10 09:07:43;;;;;;;33.13;23.00;;;;;;;9.76;90.06;100234.75;5079587;28;20058;-83
2021/04/10 09:10:31;;;;;;;33.42;23.05;;;;;;;9.75;90.37;100234.84;5079873;28;20092;-83
2021/04/10 09:13:13;;;;;;;30.70;21.40;;;;;;;9.70;90.67;100228.88;5070838;28;20041;-83
2021/04/10 09:15:40;;;;;;;28.95;21.52;;;;;;;9.74;90.96;100238.41;5072720;28;20140;-83
2021/04/10 09:18:08;;;;;;;29.52;20.58;;;;;;;9.78;90.94;100237.31;5074943;28;20051;-84
2021/04/10 09:20:48;;;;;;;31.08;21.30;;;;;;;9.83;90.99;100245.91;5073783;28;20121;-85
2021/04/10 09:23:34;;;;;;;30.05;21.98;;;;;;;9.87;90.90;100244.84;5071190;28;20055;-84
2021/04/10 09:26:07;;;;;;;33.38;20.95;;;;;;;9.94;90.86;100246.25;5070041;28;20135;-83
2021/04/10 09:28:56;;;;;;;32.38;22.65;;;;;;;9.98;90.56;100245.19;5073829;28;20627;-83
2021/04/10 09:31:49;;;;;;;33.30;22.25;;;;;;;10.09;90.53;100244.66;5061778;28;20080;-84
2021/04/10 09:34:48;;;;;;;32.22;22.70;;;;;;;10.23;90.12;100254.66;5072857;28;20105;-83
2021/04/10 09:37:23;;;;;;;31.38;21.75;;;;;;;10.33;89.80;100250.63;5082146;28;20052;-84
2021/04/10 09:40:20;;;;;;;31.63;21.88;;;;;;;10.42;89.54;100255.47;5075367;28;20476;-83
2021/04/10 09:43:03;;;;;;;24.85;18.10;;;;;;;10.42;88.48;100245.75;5073270;28;20045;-84
2021/04/10 09:45:34;;;;;;;25.95;18.42;;;;;;;10.52;88.14;100252.31;5083660;28;20104;-84
2021/04/10 09:48:10;;;;;;;25.13;19.13;;;;;;;10.53;87.52;100254.03;5076129;28;20064;-84
2021/04/10 09:50:45;;;;;;;23.30;16.13;;;;;;;10.57;87.46;100248.56;5072243;28;20091;-84
2021/04/10 09:53:22;;;;;;;22.45;14.68;;;;;;;10.58;87.25;100251.13;5076953;28;20102;-83
2021/04/10 09:56:10;;;;;;;25.25;14.52;;;;;;;10.63;86.64;100242.97;5083252;28;20049;-85
2021/04/10 09:58:42;;;;;;;23.42;13.98;;;;;;;10.68;86.63;100241.81;5082138;28;20040;-85
2021/04/10 10:01:14;;;;;;;22.70;14.32;;;;;;;10.83;86.31;100249.00;5066973;28;20143;-82
2021/04/10 10:03:41;;;;;;;29.25;21.42;;;;;;;10.94;86.20;100244.94;5092586;28;20100;-85
2021/04/10 10:06:28;;;;;;;19.85;13.65;;;;;;;11.02;85.37;100248.91;5083189;28;20045;-83
2021/04/10 10:08:55;;;;;;;17.67;11.75;;;;;;;11.09;84.58;100246.81;5081164;28;20055;-83
2021/04/10 10:11:34;;;;;;;15.25;10.45;;;;;;;10.99;82.70;100245.59;5076942;28;20539;-85
2021/04/10 10:14:17;;;;;;;11.50;8.18;;;;;;;10.84;82.39;100245.44;5075915;28;20056;-83
2021/04/10 10:16:43;;;;;;;11.52;7.95;;;;;;;10.73;82.26;100247.72;5092856;28;20040;-85
2021/04/10 10:19:18;;;;;;;8.30;6.72;;;;;;;10.56;81.96;100242.41;5091511;28;20134;-85
2021/04/10 10:21:45;;;;;;;10.82;6.20;;;;;;;10.54;82.10;100255.75;5091204;28;20060;-85
2021/04/10 10:24:20;;;;;;;6.47;4.90;;;;;;;10.49;81.90;100248.97;5082261;28;20041;-84
2021/04/10 10:26:46;;;;;;;6.72;4.55;;;;;;;10.55;82.24;100241.56;5083744;28;20487;-85
2021/04/10 10:29:16;;;;;;;6.80;4.10;;;;;;;10.59;80.38;100226.38;5087736;28;20052;-84
2021/04/10 10:31:54;;;;;;;8.15;4.07;;;;;;;10.64;79.18;100219.06;5090577;28;20071;-83
2021/04/10 10:34:24;;;;;;;6.75;4.05;;;;;;;10.79;78.98;100244.78;5092899;28;20063;-83
2021/04/10 10:36:54;;;;;;;8.52;4.60;;;;;;;10.77;79.31;100236.06;5089309;28;20037;-83
2021/04/10 10:39:28;;;;;;;6.78;3.63;;;;;;;10.81;77.82;100227.03;5084416;28;20039;-83
2021/04/10 10:41:59;;;;;;;6.55;4.55;;;;;;;10.85;78.29;100241.84;5090276;28;20050;-84
2021/04/10 10:44:30;;;;;;;6.50;4.60;;;;;;;10.92;78.83;100246.81;5088828;28;20063;-83
2021/04/10 10:47:03;;;;;;;6.43;4.40;;;;;;;10.85;78.81;100222.44;5091169;28;20029;-83
2021/04/10 10:49:30;;;;;;;5.28;3.80;;;;;;;10.99;77.60;100237.63;5091740;28;20044;-83
2021/04/10 10:51:58;;;;;;;8.88;3.90;;;;;;;10.98;78.45;100244.72;5091811;28;20035;-83
2021/04/10 10:54:36;;;;;;;4.05;3.00;;;;;;;10.89;78.09;100235.44;5092501;28;20093;-83
2021/04/10 10:57:27;;;;;;;7.07;3.70;;;;;;;10.86;79.43;100235.59;5087795;28;20056;-83
2021/04/10 11:00:08;;;;;;;7.80;3.90;;;;;;;10.88;79.82;100238.16;5085978;28;20396;-83
2021/04/10 11:02:35;;;;;;;14.45;4.15;;;;;;;10.84;80.20;100239.28;5084565;28;20041;-82
2021/04/10 11:05:03;;;;;;;6.40;3.58;;;;;;;10.82;80.62;100239.34;5080473;28;20050;-82
2021/04/10 11:07:30;;;;;;;7.35;3.70;;;;;;;10.83;80.76;100226.97;5078750;28;20109;-82
2021/04/10 11:09:58;;;;;;;6.25;4.07;;;;;;;10.87;80.73;100236.44;5082146;28;20490;-84
2021/04/10 11:12:28;;;;;;;6.57;4.00;;;;;;;10.84;81.20;100229.53;5086695;28;20045;-85
2021/04/10 11:14:57;;;;;;;8.23;4.07;;;;;;;10.89;81.47;100223.97;5087764;28;20086;-85
2021/04/10 11:17:32;;;;;;;6.05;4.00;;;;;;;10.90;81.58;100218.59;5081677;28;20058;-85
2021/04/10 11:20:02;;;;;;;6.68;4.18;;;;;;;10.89;81.50;100223.97;5077844;28;20052;-85
2021/04/10 11:22:28;;;;;;;6.28;4.05;;;;;;;10.88;82.04;100215.16;5081995;28;20090;-85
2021/04/10 11:24:59;;;;;;;5.95;3.90;;;;;;;10.93;82.13;100219.38;5080628;28;20125;-84
2021/04/10 11:27:35;;;;;;;8.73;3.10;;;;;;;10.69;80.18;100211.75;5083666;28;20068;-85
2021/04/10 11:30:12;;;;;;;7.03;3.30;;;;;;;10.65;81.08;100223.44;5077161;28;20066;-83
2021/04/10 11:32:43;;;;;;;6.53;3.80;;;;;;;10.63;81.40;100217.34;5084362;28;20083;-84
2021/04/10 11:35:21;;;;;;;7.75;3.92;;;;;;;10.61;81.50;100211.28;5082646;28;20052;-84
2021/04/10 11:38:03;;;;;;;9.15;4.00;;;;;;;10.57;81.79;100208.84;5086035;28;20068;-84
2021/04/10 11:40:34;;;;;;;5.35;3.47;;;;;;;10.57;82.67;100207.06;5082292;28;20048;-85